createdAt,value
2018-11-12T00:00:06.642Z,0.00
2018-11-12T00:01:06.635Z,0.00
2018-11-12T00:02:06.604Z,0.00
2018-11-12T00:03:06.585Z,0.00
2018-11-12T00:04:06.565Z,0.00
2018-11-12T00:05:06.546Z,0.00
2018-11-12T00:06:06.547Z,0.00
2018-11-12T00:07:06.509Z,0.00
2018-11-12T00:08:06.489Z,0.00
2018-11-12T00:09:06.482Z,0.00
2018-11-12T00:10:06.451Z,0.00
2018-11-12T00:11:06.438Z,0.00
2018-11-12T00:12:06.412Z,0.00
2018-11-12T00:13:06.408Z,0.00
2018-11-12T00:14:06.370Z,0.00
2018-11-12T00:15:06.373Z,0.00
2018-11-12T00:16:06.332Z,0.00
2018-11-12T00:17:06.316Z,0.00
2018-11-12T00:18:06.297Z,0.00
2018-11-12T00:19:06.280Z,0.00
2018-11-12T00:20:06.256Z,0.00
2018-11-12T00:21:06.246Z,0.00
2018-11-12T00:22:06.347Z,0.00
2018-11-12T00:23:06.195Z,0.00
2018-11-12T00:24:06.182Z,0.00
2018-11-12T00:25:06.159Z,0.00
2018-11-12T00:26:06.141Z,0.00
2018-11-12T00:27:06.127Z,0.00
2018-11-12T00:28:06.099Z,0.00
2018-11-12T00:29:06.080Z,0.00
2018-11-12T00:30:06.061Z,0.00
2018-11-12T00:31:06.039Z,0.00
2018-11-12T00:32:06.019Z,0.00
2018-11-12T00:33:06.004Z,0.00
2018-11-12T00:34:05.987Z,0.00
2018-11-12T00:35:05.962Z,0.00
2018-11-12T00:36:05.946Z,0.00
2018-11-12T00:37:05.927Z,0.00
2018-11-12T00:38:05.903Z,0.00
2018-11-12T00:39:05.883Z,0.00
2018-11-12T00:40:05.874Z,0.00
2018-11-12T00:41:05.844Z,0.00
2018-11-12T00:42:05.834Z,0.00
2018-11-12T00:43:05.806Z,0.00
2018-11-12T00:44:05.797Z,0.00
2018-11-12T00:45:05.771Z,0.00
2018-11-12T00:46:05.777Z,0.00
2018-11-12T00:47:05.730Z,0.00
2018-11-12T00:48:05.723Z,0.00
2018-11-12T00:49:05.692Z,0.00
2018-11-12T00:50:05.673Z,0.00
2018-11-12T00:51:05.654Z,0.00
2018-11-12T00:52:05.670Z,0.00
2018-11-12T00:53:05.615Z,0.00
2018-11-12T00:54:05.599Z,0.00
2018-11-12T00:55:05.576Z,0.00
2018-11-12T00:56:05.567Z,0.00
2018-11-12T00:57:05.552Z,0.00
2018-11-12T00:58:05.529Z,0.00
2018-11-12T00:59:05.505Z,0.00
2018-11-12T01:00:05.483Z,0.00
2018-11-12T01:01:05.471Z,0.00
2018-11-12T01:02:05.965Z,0.00
2018-11-12T01:03:05.430Z,0.00
2018-11-12T01:04:05.523Z,0.00
2018-11-12T01:05:05.390Z,0.00
2018-11-12T01:06:05.371Z,0.00
2018-11-12T01:07:05.358Z,0.00
2018-11-12T01:08:05.336Z,0.00
2018-11-12T01:09:05.316Z,0.00
2018-11-12T01:10:05.299Z,0.00
2018-11-12T01:11:05.286Z,0.00
2018-11-12T01:12:05.257Z,0.00
2018-11-12T01:13:05.241Z,0.00
2018-11-12T01:14:05.231Z,0.00
2018-11-12T01:15:05.206Z,0.00
2018-11-12T01:16:05.247Z,0.00
2018-11-12T01:17:05.172Z,0.00
2018-11-12T01:18:05.149Z,0.00
2018-11-12T01:19:05.129Z,0.00
2018-11-12T01:20:05.117Z,0.00
2018-11-12T01:21:05.100Z,0.00
2018-11-12T01:22:05.081Z,0.00
2018-11-12T01:23:05.059Z,0.00
2018-11-12T01:24:05.045Z,0.00
2018-11-12T01:25:05.020Z,0.00
2018-11-12T01:26:05.000Z,0.00
2018-11-12T01:27:04.988Z,0.00
2018-11-12T01:28:04.962Z,0.00
2018-11-12T01:29:04.943Z,0.00
2018-11-12T01:30:04.927Z,0.00
2018-11-12T01:31:04.914Z,0.00
2018-11-12T01:32:04.888Z,0.00
2018-11-12T01:33:04.868Z,0.00
2018-11-12T01:34:04.849Z,0.00
2018-11-12T01:35:04.843Z,0.00
2018-11-12T01:36:04.811Z,0.00
2018-11-12T01:37:04.803Z,0.00
2018-11-12T01:38:04.782Z,0.00
2018-11-12T01:39:04.760Z,0.00
2018-11-12T01:40:04.744Z,0.00
2018-11-12T01:41:04.721Z,0.00
2018-11-12T01:42:04.802Z,0.00
2018-11-12T01:43:04.683Z,0.00
2018-11-12T01:44:04.664Z,0.00
2018-11-12T01:45:04.645Z,0.00
2018-11-12T01:46:04.625Z,0.00
2018-11-12T01:47:04.609Z,0.00
2018-11-12T01:48:04.591Z,0.00
2018-11-12T01:49:04.570Z,0.00
2018-11-12T01:50:04.552Z,0.00
2018-11-12T01:51:04.539Z,0.00
2018-11-12T01:52:04.523Z,0.00
2018-11-12T01:53:04.497Z,0.00
2018-11-12T01:54:04.482Z,0.00
2018-11-12T01:55:04.467Z,0.00
2018-11-12T01:56:04.449Z,0.00
2018-11-12T01:57:04.423Z,0.00
2018-11-12T01:58:04.407Z,0.00
2018-11-12T01:59:04.396Z,0.00
2018-11-12T02:00:04.369Z,0.00
2018-11-12T02:01:04.356Z,0.00
2018-11-12T02:02:04.334Z,0.00
2018-11-12T02:03:04.315Z,0.00
2018-11-12T02:04:04.293Z,0.00
2018-11-12T02:05:04.372Z,0.00
2018-11-12T02:06:04.258Z,0.00
2018-11-12T02:07:04.239Z,0.00
2018-11-12T02:08:04.221Z,0.00
2018-11-12T02:09:04.270Z,0.00
2018-11-12T02:10:04.196Z,0.00
2018-11-12T02:11:04.172Z,0.00
2018-11-12T02:12:04.147Z,0.00
2018-11-12T02:13:04.134Z,0.00
2018-11-12T02:14:04.108Z,0.00
2018-11-12T02:15:04.115Z,0.00
2018-11-12T02:16:04.077Z,0.00
2018-11-12T02:17:04.061Z,0.00
2018-11-12T02:18:04.042Z,0.00
2018-11-12T02:19:04.023Z,0.00
2018-11-12T02:20:04.000Z,0.00
2018-11-12T02:21:03.988Z,0.00
2018-11-12T02:22:03.968Z,0.00
2018-11-12T02:23:03.948Z,0.00
2018-11-12T02:24:03.926Z,0.00
2018-11-12T02:25:03.911Z,0.00
2018-11-12T02:26:03.888Z,0.00
2018-11-12T02:27:03.869Z,0.00
2018-11-12T02:28:03.863Z,0.00
2018-11-12T02:29:03.841Z,0.00
2018-11-12T02:30:03.821Z,0.00
2018-11-12T02:31:03.804Z,0.00
2018-11-12T02:32:03.786Z,0.00
2018-11-12T02:33:03.777Z,0.00
2018-11-12T02:34:03.745Z,0.00
2018-11-12T02:35:03.748Z,0.00
2018-11-12T02:36:03.713Z,0.00
2018-11-12T02:37:03.691Z,0.00
2018-11-12T02:38:03.685Z,0.00
2018-11-12T02:39:03.652Z,0.00
2018-11-12T02:40:03.636Z,0.00
2018-11-12T02:41:03.620Z,0.00
2018-11-12T02:42:03.598Z,0.00
2018-11-12T02:43:03.582Z,0.00
2018-11-12T02:44:03.566Z,0.00
2018-11-12T02:45:03.547Z,0.00
2018-11-12T02:46:03.527Z,0.00
2018-11-12T02:47:03.514Z,0.00
2018-11-12T02:48:03.497Z,0.00
2018-11-12T02:49:03.477Z,0.00
2018-11-12T02:50:03.483Z,0.00
2018-11-12T02:51:03.441Z,0.00
2018-11-12T02:52:03.430Z,0.00
2018-11-12T02:53:03.401Z,0.00
2018-11-12T02:54:03.404Z,0.00
2018-11-12T02:55:03.374Z,0.00
2018-11-12T02:56:03.353Z,0.00
2018-11-12T02:57:03.333Z,0.00
2018-11-12T02:58:03.311Z,0.00
2018-11-12T02:59:03.301Z,0.00
2018-11-12T03:00:03.284Z,0.00
2018-11-12T03:01:03.267Z,0.00
2018-11-12T03:02:03.259Z,0.00
2018-11-12T03:03:03.229Z,0.00
2018-11-12T03:04:03.213Z,0.00
2018-11-12T03:05:03.197Z,0.00
2018-11-12T03:06:03.174Z,0.00
2018-11-12T03:07:03.152Z,0.00
2018-11-12T03:08:03.139Z,0.00
2018-11-12T03:09:03.120Z,0.00
2018-11-12T03:10:03.100Z,0.00
2018-11-12T03:11:04.001Z,0.00
2018-11-12T03:12:03.062Z,0.00
2018-11-12T03:13:03.055Z,0.00
2018-11-12T03:14:03.027Z,0.00
2018-11-12T03:15:03.013Z,0.00
2018-11-12T03:16:02.991Z,0.00
2018-11-12T03:17:02.975Z,0.00
2018-11-12T03:18:02.953Z,0.00
2018-11-12T03:19:02.943Z,0.00
2018-11-12T03:20:02.924Z,0.00
2018-11-12T03:21:02.903Z,0.00
2018-11-12T03:22:03.508Z,0.00
2018-11-12T03:23:02.874Z,0.00
2018-11-12T03:24:02.857Z,0.00
2018-11-12T03:25:02.839Z,0.00
2018-11-12T03:26:02.810Z,0.00
2018-11-12T03:27:02.800Z,0.00
2018-11-12T03:28:02.775Z,0.00
2018-11-12T03:29:02.759Z,0.00
2018-11-12T03:30:02.752Z,0.00
2018-11-12T03:31:02.727Z,0.00
2018-11-12T03:32:02.704Z,0.00
2018-11-12T03:33:02.691Z,0.00
2018-11-12T03:34:02.671Z,0.00
2018-11-12T03:35:02.652Z,0.00
2018-11-12T03:36:02.633Z,0.00
2018-11-12T03:37:02.621Z,0.00
2018-11-12T03:38:02.602Z,0.00
2018-11-12T03:39:02.580Z,0.00
2018-11-12T03:40:02.566Z,0.00
2018-11-12T03:41:02.552Z,0.00
2018-11-12T03:42:02.531Z,0.00
2018-11-12T03:43:02.515Z,0.00
2018-11-12T03:44:02.503Z,0.00
2018-11-12T03:45:02.473Z,0.00
2018-11-12T03:46:02.457Z,0.00
2018-11-12T03:47:02.438Z,0.00
2018-11-12T03:48:02.425Z,0.00
2018-11-12T03:49:02.404Z,0.00
2018-11-12T03:50:02.398Z,0.00
2018-11-12T03:51:02.366Z,0.00
2018-11-12T03:52:02.354Z,0.00
2018-11-12T03:53:02.338Z,0.00
2018-11-12T03:54:02.307Z,0.00
2018-11-12T03:55:02.291Z,0.00
2018-11-12T03:56:02.284Z,0.00
2018-11-12T03:57:02.265Z,0.00
2018-11-12T03:58:02.242Z,0.00
2018-11-12T03:59:02.230Z,0.00
2018-11-12T04:00:02.245Z,0.00
2018-11-12T04:01:02.191Z,0.00
2018-11-12T04:02:02.171Z,0.00
2018-11-12T04:03:02.153Z,0.00
2018-11-12T04:04:02.137Z,0.00
2018-11-12T04:05:02.118Z,0.00
2018-11-12T04:06:02.098Z,0.00
2018-11-12T04:07:02.089Z,0.00
2018-11-12T04:08:02.074Z,0.00
2018-11-12T04:09:02.056Z,0.00
2018-11-12T04:10:02.034Z,0.00
2018-11-12T04:11:02.011Z,0.00
2018-11-12T04:12:02.053Z,0.00
2018-11-12T04:13:01.977Z,0.00
2018-11-12T04:14:01.958Z,0.00
2018-11-12T04:15:01.941Z,0.00
2018-11-12T04:16:01.928Z,0.00
2018-11-12T04:17:01.904Z,0.00
2018-11-12T04:18:01.899Z,0.00
2018-11-12T04:19:01.877Z,0.00
2018-11-12T04:20:01.857Z,0.00
2018-11-12T04:21:01.841Z,0.00
2018-11-12T04:22:01.817Z,0.00
2018-11-12T04:23:01.811Z,0.00
2018-11-12T04:24:01.817Z,0.00
2018-11-12T04:25:01.770Z,0.00
2018-11-12T04:26:01.748Z,0.00
2018-11-12T04:27:01.729Z,0.00
2018-11-12T04:28:01.716Z,0.00
2018-11-12T04:29:01.697Z,0.00
2018-11-12T04:30:01.675Z,0.00
2018-11-12T04:31:01.665Z,0.00
2018-11-12T04:32:01.648Z,0.00
2018-11-12T04:33:01.630Z,0.00
2018-11-12T04:34:01.616Z,0.00
2018-11-12T04:35:01.590Z,0.00
2018-11-12T04:36:01.581Z,0.00
2018-11-12T04:37:01.559Z,0.00
2018-11-12T04:38:01.538Z,0.00
2018-11-12T04:39:01.529Z,0.00
2018-11-12T04:40:01.505Z,0.00
2018-11-12T04:41:01.519Z,0.00
2018-11-12T04:42:01.468Z,0.00
2018-11-12T04:43:01.448Z,0.00
2018-11-12T04:44:01.432Z,0.00
2018-11-12T04:45:01.418Z,0.00
2018-11-12T04:46:01.404Z,0.00
2018-11-12T04:47:01.378Z,0.00
2018-11-12T04:48:01.363Z,0.00
2018-11-12T04:49:01.348Z,0.00
2018-11-12T04:50:01.337Z,0.00
2018-11-12T04:51:01.311Z,0.00
2018-11-12T04:52:01.298Z,0.00
2018-11-12T04:53:01.280Z,0.00
2018-11-12T04:54:01.263Z,0.00
2018-11-12T04:55:01.292Z,0.00
2018-11-12T04:56:01.224Z,0.00
2018-11-12T04:57:01.205Z,0.00
2018-11-12T04:58:01.186Z,0.00
2018-11-12T04:59:01.170Z,0.00
2018-11-12T05:00:01.156Z,0.00
2018-11-12T05:01:01.142Z,0.00
2018-11-12T05:02:01.161Z,0.00
2018-11-12T05:03:01.110Z,0.00
2018-11-12T05:04:01.087Z,0.00
2018-11-12T05:05:01.072Z,0.00
2018-11-12T05:06:01.046Z,0.00
2018-11-12T05:07:01.034Z,0.00
2018-11-12T05:08:01.018Z,0.00
2018-11-12T05:09:01.002Z,0.00
2018-11-12T05:10:00.976Z,0.00
2018-11-12T05:11:00.961Z,0.00
2018-11-12T05:12:00.941Z,0.00
2018-11-12T05:13:00.924Z,0.00
2018-11-12T05:14:00.906Z,0.00
2018-11-12T05:15:00.888Z,0.00
2018-11-12T05:16:00.872Z,0.00
2018-11-12T05:17:00.862Z,0.00
2018-11-12T05:18:00.836Z,0.00
2018-11-12T05:19:00.827Z,0.00
2018-11-12T05:20:00.801Z,0.00
2018-11-12T05:21:00.788Z,0.00
2018-11-12T05:22:00.777Z,0.00
2018-11-12T05:23:00.750Z,0.00
2018-11-12T05:24:00.734Z,0.00
2018-11-12T05:25:00.724Z,0.00
2018-11-12T05:26:00.697Z,0.00
2018-11-12T05:27:00.681Z,0.00
2018-11-12T05:28:00.668Z,0.00
2018-11-12T05:29:00.646Z,0.00
2018-11-12T05:30:00.627Z,0.00
2018-11-12T05:31:00.615Z,0.00
2018-11-12T05:32:00.591Z,0.00
2018-11-12T05:33:00.578Z,0.00
2018-11-12T05:34:00.560Z,0.00
2018-11-12T05:35:00.544Z,0.00
2018-11-12T05:36:00.544Z,0.00
2018-11-12T05:37:00.512Z,0.00
2018-11-12T05:38:00.519Z,0.00
2018-11-12T05:39:00.478Z,0.00
2018-11-12T05:40:00.456Z,0.00
2018-11-12T05:41:00.443Z,0.00
2018-11-12T05:42:00.417Z,0.00
2018-11-12T05:43:00.408Z,0.00
2018-11-12T05:44:00.385Z,0.00
2018-11-12T05:45:00.490Z,0.00
2018-11-12T05:46:00.373Z,0.00
2018-11-12T05:47:00.334Z,0.00
2018-11-12T05:48:00.328Z,0.00
2018-11-12T05:49:00.301Z,0.00
2018-11-12T05:50:00.286Z,0.00
2018-11-12T05:51:00.263Z,0.00
2018-11-12T05:52:00.244Z,0.00
2018-11-12T05:53:00.237Z,0.00
2018-11-12T05:54:00.209Z,0.00
2018-11-12T05:55:00.193Z,0.00
2018-11-12T05:56:00.173Z,0.00
2018-11-12T05:57:00.164Z,0.00
2018-11-12T05:58:00.141Z,0.00
2018-11-12T05:59:00.237Z,0.00
2018-11-12T06:00:00.111Z,0.00
2018-11-12T06:01:00.093Z,0.00
2018-11-12T06:02:00.071Z,0.00
2018-11-12T06:03:00.064Z,0.00
2018-11-12T06:04:00.035Z,0.00
2018-11-12T06:05:00.104Z,0.00
2018-11-12T06:06:00.007Z,0.00
2018-11-12T06:06:59.985Z,0.00
2018-11-12T06:07:59.977Z,0.00
2018-11-12T06:08:59.952Z,0.00
2018-11-12T06:09:59.936Z,0.00
2018-11-12T06:10:59.913Z,0.00
2018-11-12T06:11:59.904Z,0.00
2018-11-12T06:12:59.893Z,0.00
2018-11-12T06:13:59.869Z,0.00
2018-11-12T06:14:59.850Z,0.00
2018-11-12T06:15:59.833Z,0.00
2018-11-12T06:16:59.815Z,0.00
2018-11-12T06:17:59.795Z,0.00
2018-11-12T06:18:59.776Z,0.00
2018-11-12T06:19:59.785Z,0.00
2018-11-12T06:20:59.759Z,0.00
2018-11-12T06:21:59.724Z,0.00
2018-11-12T06:22:59.737Z,0.00
2018-11-12T06:23:59.692Z,0.00
2018-11-12T06:24:59.673Z,0.00
2018-11-12T06:25:59.664Z,0.00
2018-11-12T06:26:59.641Z,5.63
2018-11-12T06:27:59.634Z,5.63
2018-11-12T06:28:59.616Z,5.63
2018-11-12T06:29:59.593Z,5.63
2018-11-12T06:30:59.638Z,5.63
2018-11-12T06:31:59.567Z,5.63
2018-11-12T06:32:59.542Z,5.63
2018-11-12T06:34:00.071Z,5.63
2018-11-12T06:34:59.502Z,5.63
2018-11-12T06:35:59.486Z,5.63
2018-11-12T06:36:59.476Z,5.63
2018-11-12T06:37:59.454Z,5.63
2018-11-12T06:38:59.435Z,5.63
2018-11-12T06:39:59.419Z,5.63
2018-11-12T06:40:59.406Z,5.63
2018-11-12T06:41:59.383Z,11.25
2018-11-12T06:42:59.427Z,11.25
2018-11-12T06:43:59.348Z,11.25
2018-11-12T06:44:59.335Z,11.25
2018-11-12T06:45:59.316Z,11.25
2018-11-12T06:46:59.295Z,11.25
2018-11-12T06:47:59.278Z,11.25
2018-11-12T06:48:59.264Z,11.25
2018-11-12T06:49:59.250Z,11.25
2018-11-12T06:50:59.234Z,11.25
2018-11-12T06:51:59.221Z,11.25
2018-11-12T06:52:59.280Z,11.25
2018-11-12T06:53:59.177Z,11.25
2018-11-12T06:54:59.177Z,11.25
2018-11-12T06:55:59.144Z,11.25
2018-11-12T06:56:59.132Z,11.25
2018-11-12T06:57:59.115Z,11.25
2018-11-12T06:58:59.097Z,11.25
2018-11-12T06:59:59.077Z,11.25
2018-11-12T07:00:59.144Z,11.25
2018-11-12T07:01:59.039Z,11.25
2018-11-12T07:02:59.032Z,11.25
2018-11-12T07:03:59.013Z,11.25
2018-11-12T07:04:58.997Z,11.25
2018-11-12T07:05:58.975Z,11.25
2018-11-12T07:06:59.013Z,11.25
2018-11-12T07:07:58.937Z,11.25
2018-11-12T07:08:58.930Z,11.25
2018-11-12T07:09:58.908Z,16.88
2018-11-12T07:10:58.889Z,16.88
2018-11-12T07:11:58.872Z,16.88
2018-11-12T07:12:58.861Z,16.88
2018-11-12T07:13:58.845Z,16.88
2018-11-12T07:14:58.827Z,16.88
2018-11-12T07:15:58.809Z,22.50
2018-11-12T07:16:58.796Z,22.50
2018-11-12T07:17:58.777Z,22.50
2018-11-12T07:18:58.793Z,22.50
2018-11-12T07:19:58.745Z,22.50
2018-11-12T07:20:58.724Z,22.50
2018-11-12T07:21:58.712Z,22.50
2018-11-12T07:22:58.689Z,28.13
2018-11-12T07:23:58.673Z,28.13
2018-11-12T07:24:58.688Z,28.13
2018-11-12T07:25:58.641Z,28.13
2018-11-12T07:26:58.625Z,33.75
2018-11-12T07:27:58.602Z,28.13
2018-11-12T07:28:58.596Z,28.13
2018-11-12T07:29:58.580Z,28.13
2018-11-12T07:30:58.664Z,22.50
2018-11-12T07:31:58.532Z,28.13
2018-11-12T07:32:58.522Z,28.13
2018-11-12T07:33:58.498Z,28.13
2018-11-12T07:34:58.482Z,33.75
2018-11-12T07:35:58.475Z,33.75
2018-11-12T07:36:58.450Z,39.38
2018-11-12T07:37:58.452Z,39.38
2018-11-12T07:38:58.421Z,39.38
2018-11-12T07:39:58.405Z,45.00
2018-11-12T07:40:58.389Z,45.00
2018-11-12T07:41:58.397Z,45.00
2018-11-12T07:42:58.351Z,45.00
2018-11-12T07:43:58.339Z,45.00
2018-11-12T07:44:58.318Z,45.00
2018-11-12T07:45:58.305Z,50.63
2018-11-12T07:46:58.282Z,45.00
2018-11-12T07:47:58.273Z,50.63
2018-11-12T07:48:58.250Z,56.25
2018-11-12T07:49:58.231Z,56.25
2018-11-12T07:50:58.215Z,67.50
2018-11-12T07:51:58.199Z,61.88
2018-11-12T07:52:58.183Z,61.88
2018-11-12T07:53:58.174Z,67.50
2018-11-12T07:54:58.151Z,67.50
2018-11-12T07:55:58.139Z,67.50
2018-11-12T07:56:58.119Z,73.13
2018-11-12T07:57:58.102Z,67.50
2018-11-12T07:58:58.085Z,73.13
2018-11-12T07:59:58.067Z,67.50
2018-11-12T08:00:58.057Z,67.50
2018-11-12T08:01:58.037Z,73.13
2018-11-12T08:02:58.060Z,73.13
2018-11-12T08:03:58.003Z,78.75
2018-11-12T08:04:57.983Z,78.75
2018-11-12T08:05:57.967Z,78.75
2018-11-12T08:06:57.961Z,78.75
2018-11-12T08:07:57.932Z,84.38
2018-11-12T08:08:57.980Z,84.38
2018-11-12T08:09:57.905Z,84.38
2018-11-12T08:10:57.893Z,84.38
2018-11-12T08:11:57.914Z,90.00
2018-11-12T08:12:57.851Z,84.38
2018-11-12T08:13:57.835Z,78.75
2018-11-12T08:14:57.857Z,73.13
2018-11-12T08:15:57.806Z,67.50
2018-11-12T08:16:57.810Z,73.13
2018-11-12T08:17:57.768Z,73.13
2018-11-12T08:18:57.752Z,84.38
2018-11-12T08:19:57.739Z,101.25
2018-11-12T08:20:57.719Z,112.50
2018-11-12T08:21:57.703Z,112.50
2018-11-12T08:22:57.690Z,112.50
2018-11-12T08:23:57.687Z,112.50
2018-11-12T08:24:57.662Z,101.25
2018-11-12T08:25:57.645Z,90.00
2018-11-12T08:26:57.626Z,90.00
2018-11-12T08:27:57.604Z,90.00
2018-11-12T08:28:57.588Z,90.00
2018-11-12T08:29:57.633Z,90.00
2018-11-12T08:30:57.563Z,90.00
2018-11-12T08:31:57.550Z,90.00
2018-11-12T08:32:57.596Z,84.38
2018-11-12T08:33:57.508Z,84.38
2018-11-12T08:34:57.499Z,84.38
2018-11-12T08:35:57.479Z,90.00
2018-11-12T08:36:57.460Z,101.25
2018-11-12T08:37:57.443Z,90.00
2018-11-12T08:38:57.447Z,84.38
2018-11-12T08:39:57.485Z,78.75
2018-11-12T08:40:57.440Z,78.75
2018-11-12T08:41:57.379Z,90.00
2018-11-12T08:42:57.370Z,106.88
2018-11-12T08:43:57.351Z,129.38
2018-11-12T08:44:57.329Z,151.88
2018-11-12T08:45:57.361Z,157.50
2018-11-12T08:46:57.311Z,157.50
2018-11-12T08:47:57.280Z,151.88
2018-11-12T08:48:57.366Z,135.00
2018-11-12T08:49:57.264Z,129.38
2018-11-12T08:50:57.236Z,118.13
2018-11-12T08:51:57.222Z,112.50
2018-11-12T08:52:57.205Z,106.88
2018-11-12T08:53:57.203Z,106.88
2018-11-12T08:54:57.289Z,106.88
2018-11-12T08:55:57.155Z,106.88
2018-11-12T08:56:57.137Z,106.88
2018-11-12T08:57:57.155Z,95.63
2018-11-12T08:58:57.119Z,95.63
2018-11-12T08:59:57.090Z,90.00
2018-11-12T09:00:57.137Z,90.00
2018-11-12T09:01:57.060Z,95.63
2018-11-12T09:02:57.038Z,95.63
2018-11-12T09:03:57.083Z,95.63
2018-11-12T09:04:57.014Z,101.25
2018-11-12T09:05:57.006Z,112.50
2018-11-12T09:06:56.971Z,106.88
2018-11-12T09:07:56.962Z,95.63
2018-11-12T09:08:56.946Z,101.25
2018-11-12T09:09:56.960Z,95.63
2018-11-12T09:10:56.934Z,95.63
2018-11-12T09:11:56.897Z,101.25
2018-11-12T09:12:56.877Z,106.88
2018-11-12T09:13:56.863Z,101.25
2018-11-12T09:14:56.851Z,95.63
2018-11-12T09:15:56.831Z,95.63
2018-11-12T09:16:56.819Z,95.63
2018-11-12T09:17:56.800Z,95.63
2018-11-12T09:18:56.784Z,95.63
2018-11-12T09:19:56.761Z,95.63
2018-11-12T09:20:56.752Z,95.63
2018-11-12T09:21:56.729Z,95.63
2018-11-12T09:22:56.777Z,101.25
2018-11-12T09:23:56.697Z,101.25
2018-11-12T09:24:56.690Z,101.25
2018-11-12T09:25:56.662Z,101.25
2018-11-12T09:26:56.649Z,112.50
2018-11-12T09:27:56.642Z,118.13
2018-11-12T09:28:56.617Z,123.75
2018-11-12T09:29:56.601Z,129.38
2018-11-12T09:30:57.590Z,123.75
2018-11-12T09:31:56.570Z,123.75
2018-11-12T09:32:56.554Z,135.00
2018-11-12T09:34:56.525Z,129.38
2018-11-12T09:35:56.510Z,123.75
2018-11-12T09:36:56.624Z,112.50
2018-11-12T09:37:56.499Z,106.88
2018-11-12T09:40:56.438Z,106.88
2018-11-12T09:41:56.420Z,106.88
2018-11-12T09:42:56.399Z,112.50
2018-11-12T09:43:56.378Z,118.13
2018-11-12T09:44:56.365Z,129.38
2018-11-12T09:45:56.351Z,129.38
2018-11-12T09:46:56.335Z,118.13
2018-11-12T09:47:56.418Z,112.50
2018-11-12T09:48:56.313Z,106.88
2018-11-12T09:49:56.285Z,106.88
2018-11-12T09:50:56.276Z,101.25
2018-11-12T09:51:56.251Z,106.88
2018-11-12T09:52:56.237Z,106.88
2018-11-12T09:53:56.285Z,101.25
2018-11-12T09:54:56.226Z,95.63
2018-11-12T09:55:56.195Z,95.63
2018-11-12T09:56:56.177Z,101.25
2018-11-12T09:57:56.158Z,106.88
2018-11-12T09:58:56.139Z,118.13
2018-11-12T09:59:56.194Z,129.38
2018-11-12T10:00:56.604Z,140.63
2018-11-12T10:01:56.857Z,146.25
2018-11-12T10:02:57.338Z,163.13
2018-11-12T10:03:57.345Z,196.88
2018-11-12T10:04:57.750Z,225.00
2018-11-12T10:05:57.454Z,225.00
2018-11-12T10:06:57.063Z,230.63
2018-11-12T10:07:58.475Z,225.00
2018-11-12T10:08:57.486Z,225.00
2018-11-12T10:09:57.867Z,230.63
2018-11-12T10:10:59.199Z,213.75
2018-11-12T10:11:58.140Z,185.63
2018-11-12T10:12:57.395Z,174.38
2018-11-12T10:13:57.597Z,151.88
2018-11-12T10:14:57.698Z,146.25
2018-11-12T10:15:58.023Z,140.63
2018-11-12T10:16:58.868Z,140.63
2018-11-12T10:17:58.819Z,140.63
2018-11-12T10:18:55.837Z,140.63
2018-11-12T10:19:55.813Z,151.88
2018-11-12T10:20:55.796Z,168.75
2018-11-12T10:21:55.784Z,191.25
2018-11-12T10:22:55.765Z,191.25
2018-11-12T10:23:55.755Z,196.88
2018-11-12T10:24:55.741Z,213.75
2018-11-12T10:25:55.716Z,236.25
2018-11-12T10:26:55.711Z,253.13
2018-11-12T10:27:55.689Z,253.13
2018-11-12T10:28:55.676Z,247.50
2018-11-12T10:29:55.664Z,253.13
2018-11-12T10:30:55.659Z,264.38
2018-11-12T10:31:55.639Z,264.38
2018-11-12T10:32:55.612Z,270.00
2018-11-12T10:33:55.608Z,270.00
2018-11-12T10:34:55.583Z,292.50
2018-11-12T10:35:55.574Z,264.38
2018-11-12T10:36:55.553Z,264.38
2018-11-12T10:37:55.536Z,247.50
2018-11-12T10:38:55.523Z,247.50
2018-11-12T10:39:55.507Z,236.25
2018-11-12T10:40:55.584Z,253.13
2018-11-12T10:41:55.483Z,247.50
2018-11-12T10:42:55.462Z,236.25
2018-11-12T10:43:55.451Z,241.88
2018-11-12T10:44:55.455Z,264.38
2018-11-12T10:45:55.417Z,270.00
2018-11-12T10:46:55.415Z,270.00
2018-11-12T10:47:55.448Z,275.63
2018-11-12T10:48:55.372Z,298.13
2018-11-12T10:49:55.360Z,303.75
2018-11-12T10:51:04.595Z,303.75
2018-11-12T10:51:55.330Z,315.00
2018-11-12T10:52:55.314Z,292.50
2018-11-12T10:53:55.375Z,258.75
2018-11-12T10:55:04.901Z,247.50
2018-11-12T10:55:55.396Z,241.88
2018-11-12T10:56:55.256Z,241.88
2018-11-12T10:57:55.243Z,241.88
2018-11-12T10:58:55.230Z,241.88
2018-11-12T10:59:55.212Z,241.88
2018-11-12T11:00:55.254Z,247.50
2018-11-12T11:01:55.182Z,247.50
2018-11-12T11:02:55.166Z,247.50
2018-11-12T11:03:55.160Z,241.88
2018-11-12T11:04:55.144Z,253.13
2018-11-12T11:05:55.128Z,286.88
2018-11-12T11:06:55.108Z,286.88
2018-11-12T11:07:55.098Z,275.63
2018-11-12T11:08:55.086Z,264.38
2018-11-12T11:09:55.079Z,275.63
2018-11-12T11:10:55.057Z,298.13
2018-11-12T11:11:55.035Z,292.50
2018-11-12T11:12:55.022Z,281.25
2018-11-12T11:13:55.013Z,281.25
2018-11-12T11:14:54.994Z,275.63
2018-11-12T11:15:54.981Z,258.75
2018-11-12T11:16:54.968Z,253.13
2018-11-12T11:17:54.954Z,258.75
2018-11-12T11:18:54.936Z,253.13
2018-11-12T11:19:54.929Z,230.63
2018-11-12T11:20:54.911Z,225.00
2018-11-12T11:21:54.900Z,208.13
2018-11-12T11:22:54.884Z,191.25
2018-11-12T11:23:54.871Z,174.38
2018-11-12T11:24:54.853Z,163.13
2018-11-12T11:25:54.841Z,151.88
2018-11-12T11:26:54.820Z,140.63
2018-11-12T11:27:54.808Z,129.38
2018-11-12T11:28:54.800Z,123.75
2018-11-12T11:29:54.785Z,123.75
2018-11-12T11:30:54.821Z,112.50
2018-11-12T11:31:54.750Z,123.75
2018-11-12T11:32:54.737Z,129.38
2018-11-12T11:33:54.724Z,123.75
2018-11-12T11:34:54.704Z,129.38
2018-11-12T11:35:54.690Z,135.00
2018-11-12T11:36:54.681Z,151.88
2018-11-12T11:37:54.702Z,157.50
2018-11-12T11:38:54.652Z,163.13
2018-11-12T11:39:54.636Z,151.88
2018-11-12T11:40:54.703Z,157.50
2018-11-12T11:41:54.611Z,174.38
2018-11-12T11:42:54.596Z,191.25
2018-11-12T11:43:54.607Z,219.38
2018-11-12T11:44:54.559Z,213.75
2018-11-12T11:45:54.549Z,208.13
2018-11-12T11:46:54.534Z,185.63
2018-11-12T11:47:54.575Z,180.00
2018-11-12T11:48:54.536Z,168.75
2018-11-12T11:49:54.734Z,168.75
2018-11-12T11:50:54.471Z,174.38
2018-11-12T11:51:54.464Z,174.38
2018-11-12T11:52:54.445Z,174.38
2018-11-12T11:53:54.426Z,174.38
2018-11-12T11:54:54.413Z,191.25
2018-11-12T11:55:54.403Z,196.88
2018-11-12T11:56:54.506Z,185.63
2018-11-12T11:57:54.378Z,168.75
2018-11-12T11:58:54.363Z,168.75
2018-11-12T11:59:54.346Z,168.75
2018-11-12T12:00:54.376Z,174.38
2018-11-12T12:01:54.317Z,174.38
2018-11-12T12:02:54.327Z,185.63
2018-11-12T12:03:54.280Z,202.50
2018-11-12T12:04:54.273Z,225.00
2018-11-12T12:05:54.260Z,247.50
2018-11-12T12:06:54.244Z,241.88
2018-11-12T12:07:54.224Z,236.25
2018-11-12T12:08:54.294Z,225.00
2018-11-12T12:09:54.199Z,202.50
2018-11-12T12:10:54.187Z,174.38
2018-11-12T12:11:54.168Z,168.75
2018-11-12T12:12:54.159Z,168.75
2018-11-12T12:13:54.139Z,163.13
2018-11-12T12:14:54.129Z,168.75
2018-11-12T12:15:54.109Z,151.88
2018-11-12T12:16:54.094Z,151.88
2018-11-12T12:17:54.083Z,157.50
2018-11-12T12:18:54.066Z,174.38
2018-11-12T12:19:54.230Z,180.00
2018-11-12T12:20:54.042Z,157.50
2018-11-12T12:21:54.024Z,140.63
2018-11-12T12:22:54.008Z,123.75
2018-11-12T12:23:53.998Z,118.13
2018-11-12T12:24:54.048Z,123.75
2018-11-12T12:25:54.009Z,135.00
2018-11-12T12:26:53.950Z,118.13
2018-11-12T12:27:53.937Z,118.13
2018-11-12T12:28:53.924Z,106.88
2018-11-12T12:29:53.912Z,90.00
2018-11-12T12:30:53.892Z,90.00
2018-11-12T12:31:53.875Z,84.38
2018-11-12T12:32:53.862Z,90.00
2018-11-12T12:33:53.846Z,101.25
2018-11-12T12:34:53.843Z,101.25
2018-11-12T12:35:53.864Z,101.25
2018-11-12T12:36:53.928Z,106.88
2018-11-12T12:37:53.799Z,101.25
2018-11-12T12:38:53.772Z,95.63
2018-11-12T12:39:53.769Z,95.63
2018-11-12T12:40:53.753Z,90.00
2018-11-12T12:41:53.737Z,84.38
2018-11-12T12:42:53.721Z,78.75
2018-11-12T12:43:53.705Z,84.38
2018-11-12T12:44:53.801Z,73.13
2018-11-12T12:45:53.824Z,78.75
2018-11-12T12:46:53.662Z,84.38
2018-11-12T12:47:53.648Z,84.38
2018-11-12T12:48:53.633Z,84.38
2018-11-12T12:49:53.620Z,73.13
2018-11-12T12:50:53.597Z,73.13
2018-11-12T12:51:53.591Z,73.13
2018-11-12T12:52:53.575Z,67.50
2018-11-12T12:53:53.553Z,67.50
2018-11-12T12:54:53.543Z,73.13
2018-11-12T12:55:53.642Z,78.75
2018-11-12T12:56:53.518Z,78.75
2018-11-12T12:57:53.504Z,67.50
2018-11-12T12:58:53.478Z,61.88
2018-11-12T12:59:53.530Z,73.13
2018-11-12T13:00:53.449Z,78.75